Terminal Aerodrome Forecast
Issued by NWS Blacksburg, VA

Home | Current Version | Previous Version | Text Only | Print | Product List | Glossary On
Versions: 1 2 3 4 5 6 7 8 9 10 11 12 13 14 15 16 17 18 19 20 21 22 23 24 25 26 27 28 29 30 31 32 33 34 35 36 37 38 39 40 41 42 43 44 45
000
FTUS41 KRNK 291137
TAFLYH
TAF
KLYH 291137Z 2912/3012 00000KT 1SM BR VV002
      TEMPO 2912/2913 1/2SM FG
     FM291400 19004KT P6SM BKN015 OVC250
     FM291600 19005KT P6SM SCT035 SCT250
     FM292000 19004KT P6SM VCTS BKN045CB BKN250
     FM300100 VRB03KT P6SM VCSH BKN050 BKN250
     FM300600 00000KT 5SM BR SCT050 BKN250
     FM300800 00000KT 2SM BR SCT002 SCT120 BKN250
      TEMPO 3008/3012 1/2SM FG VV002=

USA.gov is the U.S. government's official web portal to all federal, state and local government web resources and services.